Time;durP1;ratioP1;P1;durP2;ratioP2;P2;SDS_P1;SDS_P2;PMS_P1;PMS_P2;Temp;Humidity;BMP_temperature;BMP_pressure;BME280_temperature;BME280_humidity;BME280_pressure;Samples;Min_cycle;Max_cycle;Signal;HPM_P1;HPM_P2
2023/02/06 00:00:30;;;;;;;4.67;3.17;;;4.00;98.00;;;;;;5033949;28;20461;-70
2023/02/06 00:02:57;;;;;;;4.17;3.07;;;3.90;98.00;;;;;;5033624;28;20465;-70
2023/02/06 00:05:24;;;;;;;5.57;3.00;;;4.00;98.00;;;;;;5033466;28;20488;-70
2023/02/06 00:07:51;;;;;;;8.93;3.43;;;4.00;98.00;;;;;;5033863;28;20460;-70
2023/02/06 00:10:19;;;;;;;4.83;3.80;;;3.90;98.00;;;;;;5034384;28;20463;-70
2023/02/06 00:12:46;;;;;;;4.33;3.23;;;3.70;98.00;;;;;;5034232;28;20480;-70
2023/02/06 00:15:15;;;;;;;9.33;3.33;;;3.60;98.00;;;;;;5034536;28;20953;-71
2023/02/06 00:17:42;;;;;;;6.13;3.37;;;3.80;98.00;;;;;;5034353;28;20464;-70
2023/02/06 00:20:11;;;;;;;5.60;3.67;;;3.90;98.00;;;;;;5034440;28;20525;-70
2023/02/06 00:22:38;;;;;;;6.03;3.37;;;3.80;98.00;;;;;;5034130;28;20464;-70
2023/02/06 00:25:06;;;;;;;5.50;3.00;;;3.80;98.00;;;;;;5034397;28;20489;-69
2023/02/06 00:27:34;;;;;;;8.10;3.27;;;3.80;98.00;;;;;;5033312;28;20823;-70
2023/02/06 00:30:01;;;;;;;8.53;3.97;;;3.90;98.00;;;;;;5034054;28;20466;-70
2023/02/06 00:32:30;;;;;;;3.97;2.63;;;4.10;98.00;;;;;;5033664;28;20948;-70
2023/02/06 00:34:57;;;;;;;6.93;4.00;;;3.90;98.00;;;;;;5033725;28;20465;-69
2023/02/06 00:37:24;;;;;;;5.37;3.50;;;3.80;98.00;;;;;;5033944;28;20824;-70
2023/02/06 00:39:51;;;;;;;3.23;2.77;;;3.70;98.00;;;;;;5033569;28;20465;-70
2023/02/06 00:42:18;;;;;;;10.33;4.53;;;3.70;98.00;;;;;;5033683;28;20484;-70
2023/02/06 00:44:46;;;;;;;4.63;3.43;;;3.80;98.00;;;;;;5033621;28;20514;-70
2023/02/06 00:47:13;;;;;;;4.57;3.33;;;3.80;98.00;;;;;;5033326;28;20471;-70
2023/02/06 00:49:42;;;;;;;9.03;4.27;;;3.70;98.00;;;;;;5032575;28;20500;-69
2023/02/06 00:52:09;;;;;;;7.83;3.67;;;3.70;98.00;;;;;;5033486;28;20467;-70
2023/02/06 00:54:36;;;;;;;6.50;3.40;;;3.70;98.00;;;;;;5033511;28;20979;-69
2023/02/06 00:57:03;;;;;;;7.87;3.87;;;3.60;98.00;;;;;;5033453;28;20460;-70
2023/02/06 00:59:30;;;;;;;5.20;2.87;;;3.50;98.00;;;;;;5033563;28;20956;-70
2023/02/06 01:01:57;;;;;;;11.53;3.80;;;3.50;98.00;;;;;;5033483;28;20466;-69
2023/02/06 01:04:24;;;;;;;4.03;2.33;;;3.50;98.00;;;;;;5033274;28;20467;-70
2023/02/06 01:06:54;;;;;;;7.43;3.73;;;3.40;98.00;;;;;;5032957;28;20473;-70
2023/02/06 01:09:21;;;;;;;9.63;3.77;;;3.40;98.00;;;;;;5033328;28;20464;-70
2023/02/06 01:11:48;;;;;;;6.47;3.20;;;3.40;98.00;;;;;;5031846;28;20464;-69
2023/02/06 01:14:16;;;;;;;4.17;2.83;;;3.50;98.00;;;;;;5031890;28;20943;-69
2023/02/06 01:16:43;;;;;;;4.57;2.87;;;3.50;98.00;;;;;;5033137;28;20513;-70
2023/02/06 01:19:10;;;;;;;3.50;2.67;;;3.60;98.00;;;;;;5033197;28;20456;-70
2023/02/06 01:21:37;;;;;;;5.60;3.37;;;3.50;98.00;;;;;;5032930;28;20466;-70
2023/02/06 01:24:06;;;;;;;10.20;3.60;;;3.40;98.00;;;;;;5033114;28;20457;-70
2023/02/06 01:26:33;;;;;;;6.03;3.20;;;3.40;98.00;;;;;;5032493;28;21143;-69
2023/02/06 01:29:02;;;;;;;7.80;3.57;;;3.40;98.00;;;;;;5033242;28;20455;-70
2023/02/06 01:31:31;;;;;;;4.90;3.30;;;3.50;98.00;;;;;;5033016;28;20496;-70
2023/02/06 01:33:59;;;;;;;6.67;3.57;;;3.60;98.00;;;;;;5033104;28;20465;-69
2023/02/06 01:36:27;;;;;;;4.40;2.90;;;3.50;98.00;;;;;;5032438;28;20519;-70
2023/02/06 01:38:54;;;;;;;4.10;2.70;;;3.50;98.00;;;;;;5032997;28;20482;-70
2023/02/06 01:41:24;;;;;;;4.27;3.27;;;3.50;98.00;;;;;;5032572;28;20478;-70
2023/02/06 01:44:14;;;;;;;6.40;3.40;;;3.60;98.00;;;;;;5032646;28;20511;-69
2023/02/06 01:46:43;;;;;;;5.90;3.90;;;3.60;98.00;;;;;;5032523;28;20950;-70
2023/02/06 01:49:16;;;;;;;5.97;3.30;;;3.60;98.00;;;;;;5032516;28;20456;-70
2023/02/06 01:51:44;;;;;;;12.23;4.07;;;3.60;98.00;;;;;;5032727;28;20931;-69
2023/02/06 01:54:12;;;;;;;7.60;2.90;;;3.50;98.00;;;;;;5032546;28;20946;-69
2023/02/06 01:56:48;;;;;;;4.77;3.30;;;3.60;98.00;;;;;;5032305;28;20521;-69
2023/02/06 01:59:15;;;;;;;2.43;2.17;;;3.60;98.00;;;;;;5032214;28;20836;-70
2023/02/06 02:01:43;;;;;;;4.40;2.87;;;3.60;98.00;;;;;;5032160;28;20506;-70
2023/02/06 02:04:14;;;;;;;7.93;3.37;;;3.70;98.00;;;;;;5032398;28;20478;-69
2023/02/06 02:06:41;;;;;;;3.87;2.53;;;3.70;98.00;;;;;;5031787;28;20494;-70
2023/02/06 02:09:09;;;;;;;6.20;3.10;;;3.60;98.00;;;;;;5032209;28;20462;-70
2023/02/06 02:11:37;;;;;;;7.20;4.20;;;3.60;98.00;;;;;;5032226;28;20460;-70
2023/02/06 02:14:11;;;;;;;11.40;3.47;;;3.70;98.00;;;;;;5032412;28;20453;-70
2023/02/06 02:16:48;;;;;;;6.60;3.47;;;3.80;98.00;;;;;;5032294;28;20454;-70
2023/02/06 02:20:05;;;;;;;6.20;3.27;;;3.90;98.00;;;;;;5032199;28;20461;-70
2023/02/06 02:23:09;;;;;;;3.53;2.50;;;3.90;98.00;;;;;;4992681;28;20456;-70
2023/02/06 02:26:17;;;;;;;5.23;3.10;;;4.10;98.00;;;;;;5022609;28;20477;-70
2023/02/06 02:29:19;;;;;;;7.53;4.33;;;4.00;98.00;;;;;;5032007;28;20466;-70
2023/02/06 02:32:12;;;;;;;4.90;3.50;;;4.00;98.00;;;;;;5032350;28;20522;-69
2023/02/06 02:35:02;;;;;;;2.57;2.20;;;4.00;98.00;;;;;;5032034;28;20486;-69
2023/02/06 02:37:40;;;;;;;8.60;3.07;;;4.00;98.00;;;;;;5032179;28;20462;-70
2023/02/06 02:40:16;;;;;;;8.10;4.00;;;4.00;98.00;;;;;;5032196;28;20495;-69
2023/02/06 02:42:50;;;;;;;9.70;3.93;;;3.90;98.00;;;;;;5031828;28;20526;-70
2023/02/06 02:45:21;;;;;;;7.90;3.57;;;3.80;98.00;;;;;;5031763;28;20518;-70
2023/02/06 02:47:56;;;;;;;5.07;3.53;;;3.70;98.00;;;;;;5032026;28;20452;-70
2023/02/06 02:50:25;;;;;;;5.53;3.40;;;3.60;98.00;;;;;;5031819;28;20460;-70
2023/02/06 02:52:57;;;;;;;5.27;3.03;;;3.50;98.00;;;;;;5031584;28;20462;-70
2023/02/06 02:55:24;;;;;;;7.80;3.80;;;3.60;98.00;;;;;;5031823;28;20457;-70
2023/02/06 02:57:55;;;;;;;5.93;2.97;;;3.60;98.00;;;;;;5031781;28;20458;-70
2023/02/06 03:00:24;;;;;;;5.43;3.57;;;3.50;98.00;;;;;;5031780;28;20464;-70
2023/02/06 03:02:54;;;;;;;5.87;3.70;;;3.60;98.00;;;;;;5031582;28;20447;-70
2023/02/06 03:05:25;;;;;;;4.53;3.33;;;3.50;98.00;;;;;;5031468;28;20946;-70
2023/02/06 03:08:05;;;;;;;7.07;3.27;;;3.40;98.00;;;;;;5030354;28;21190;-69
2023/02/06 03:10:39;;;;;;;5.67;3.10;;;3.40;98.00;;;;;;5031813;28;20466;-70
2023/02/06 03:13:15;;;;;;;4.83;3.03;;;3.40;98.00;;;;;;5034419;28;20496;-70
2023/02/06 03:15:49;;;;;;;8.10;3.57;;;3.30;98.00;;;;;;5035535;28;20456;-70
2023/02/06 03:18:19;;;;;;;6.63;2.77;;;3.20;98.00;;;;;;5035518;28;20464;-69
2023/02/06 03:20:49;;;;;;;5.20;3.17;;;3.20;98.00;;;;;;5035237;28;20461;-70
2023/02/06 03:23:20;;;;;;;5.00;3.37;;;3.20;98.00;;;;;;5035342;28;20460;-69
2023/02/06 03:25:51;;;;;;;7.53;3.63;;;3.20;98.00;;;;;;5035517;28;20489;-71
2023/02/06 03:28:22;;;;;;;3.50;2.97;;;3.20;98.00;;;;;;5034400;28;20459;-69
2023/02/06 03:30:52;;;;;;;5.53;4.00;;;3.20;98.00;;;;;;5035014;28;20463;-70
2023/02/06 03:33:24;;;;;;;6.07;3.83;;;3.20;98.00;;;;;;5034919;28;20489;-70
2023/02/06 03:35:55;;;;;;;4.30;3.10;;;3.20;98.00;;;;;;5034958;28;20482;-70
2023/02/06 03:38:25;;;;;;;5.07;3.10;;;3.20;98.00;;;;;;5034806;28;21005;-69
2023/02/06 03:40:54;;;;;;;8.30;4.30;;;3.30;98.00;;;;;;5035054;28;20461;-70
2023/02/06 03:43:24;;;;;;;4.37;3.03;;;3.40;98.00;;;;;;5034917;28;20454;-69
2023/02/06 03:45:56;;;;;;;9.80;4.57;;;3.40;98.00;;;;;;5034696;28;20481;-69
2023/02/06 03:48:27;;;;;;;11.90;4.37;;;3.30;98.00;;;;;;5034797;28;20550;-69
2023/02/06 03:51:01;;;;;;;8.80;4.53;;;3.30;98.00;;;;;;5034789;28;20453;-70
2023/02/06 03:53:29;;;;;;;10.07;5.00;;;3.20;98.00;;;;;;5034764;28;21087;-70
2023/02/06 03:56:01;;;;;;;5.30;3.33;;;3.10;98.00;;;;;;5034444;28;20460;-70
2023/02/06 03:58:28;;;;;;;5.53;3.73;;;3.10;98.00;;;;;;5033596;28;20809;-70
2023/02/06 04:00:56;;;;;;;7.97;3.97;;;3.00;98.00;;;;;;5034517;28;20986;-69
2023/02/06 04:03:24;;;;;;;5.70;3.60;;;2.90;98.00;;;;;;5033128;28;20464;-69
2023/02/06 04:05:51;;;;;;;7.63;4.23;;;3.10;98.00;;;;;;5034291;28;20556;-70
2023/02/06 04:08:19;;;;;;;9.40;3.80;;;3.30;98.00;;;;;;5034618;28;20805;-70
2023/02/06 04:10:46;;;;;;;6.00;3.27;;;3.30;98.00;;;;;;5034461;28;20936;-69
2023/02/06 04:13:13;;;;;;;6.30;3.80;;;3.40;98.00;;;;;;5034417;28;20469;-70
2023/02/06 04:15:40;;;;;;;4.50;2.97;;;3.40;98.00;;;;;;5034389;28;20461;-70
2023/02/06 04:18:10;;;;;;;5.10;3.27;;;3.40;98.00;;;;;;5034313;28;20950;-70
2023/02/06 04:20:39;;;;;;;7.10;4.30;;;3.70;98.00;;;;;;5034023;28;20457;-70
2023/02/06 04:23:08;;;;;;;4.40;2.97;;;3.90;98.00;;;;;;5034337;28;20450;-69
2023/02/06 04:25:37;;;;;;;5.97;3.87;;;4.00;98.00;;;;;;5033281;28;20457;-69
2023/02/06 04:28:04;;;;;;;6.50;3.53;;;3.80;98.00;;;;;;5034017;28;20465;-70
2023/02/06 04:30:31;;;;;;;7.63;3.60;;;3.70;98.00;;;;;;5034083;28;20459;-70
2023/02/06 04:32:58;;;;;;;6.33;3.67;;;3.80;98.00;;;;;;5033838;28;20459;-69
2023/02/06 04:35:25;;;;;;;12.17;4.13;;;3.80;98.00;;;;;;5033847;28;21136;-70
2023/02/06 04:37:53;;;;;;;12.07;4.30;;;3.70;98.00;;;;;;5033758;28;20453;-69
2023/02/06 04:40:20;;;;;;;4.23;2.93;;;3.60;98.00;;;;;;5033858;28;20461;-70
2023/02/06 04:42:49;;;;;;;6.03;4.03;;;3.70;98.00;;;;;;5033722;28;20949;-70
2023/02/06 04:45:16;;;;;;;8.90;5.33;;;3.70;98.00;;;;;;5033677;28;20491;-69
2023/02/06 04:47:43;;;;;;;7.90;3.50;;;3.70;98.00;;;;;;5033603;28;20530;-70
2023/02/06 04:50:12;;;;;;;7.57;4.57;;;3.70;98.00;;;;;;5033640;28;20930;-70
2023/02/06 04:52:39;;;;;;;11.03;5.00;;;3.80;98.00;;;;;;5033484;28;21094;-69
2023/02/06 04:55:07;;;;;;;7.13;3.87;;;3.80;98.00;;;;;;5033722;28;20471;-69
2023/02/06 04:57:34;;;;;;;9.23;5.10;;;3.80;98.00;;;;;;5033764;28;20954;-70
2023/02/06 05:00:05;;;;;;;7.40;4.13;;;3.60;98.00;;;;;;5033532;28;20461;-70
2023/02/06 05:02:38;;;;;;;6.90;3.83;;;3.50;98.00;;;;;;5033532;28;20472;-69
2023/02/06 05:05:07;;;;;;;3.37;2.73;;;3.30;98.00;;;;;;5033469;28;20456;-69
2023/02/06 05:07:35;;;;;;;7.00;3.60;;;3.20;98.00;;;;;;5033213;28;20485;-70
2023/02/06 05:10:02;;;;;;;7.87;5.27;;;3.10;98.00;;;;;;5033448;28;20461;-70
2023/02/06 05:12:29;;;;;;;17.33;4.77;;;3.20;98.00;;;;;;5032933;28;20487;-70
2023/02/06 05:14:57;;;;;;;6.53;4.40;;;3.40;98.00;;;;;;5032281;28;20451;-70
2023/02/06 05:17:25;;;;;;;6.67;2.93;;;3.30;98.00;;;;;;5032301;28;20828;-69
2023/02/06 05:19:53;;;;;;;7.70;4.40;;;3.20;98.00;;;;;;5032975;28;20937;-70
2023/02/06 05:22:20;;;;;;;5.57;3.63;;;3.30;98.00;;;;;;5033092;28;20828;-70
2023/02/06 05:24:47;;;;;;;7.77;4.10;;;3.10;98.00;;;;;;5032880;28;20458;-70
2023/02/06 05:27:14;;;;;;;19.47;5.47;;;3.00;98.00;;;;;;5032848;28;20490;-69
2023/02/06 05:29:41;;;;;;;5.87;3.87;;;3.00;98.00;;;;;;5032997;28;20529;-69
2023/02/06 05:32:08;;;;;;;7.90;4.47;;;3.00;98.00;;;;;;5032624;28;20462;-70
2023/02/06 05:34:36;;;;;;;7.70;4.73;;;3.00;98.00;;;;;;5032370;28;20532;-70
2023/02/06 05:37:03;;;;;;;6.27;4.37;;;3.20;98.00;;;;;;5032632;28;20454;-70
2023/02/06 05:39:31;;;;;;;13.23;5.27;;;3.20;98.00;;;;;;5032606;28;20461;-70
2023/02/06 05:41:58;;;;;;;8.43;4.67;;;3.10;98.00;;;;;;5032448;28;20463;-69
2023/02/06 05:44:25;;;;;;;12.67;4.10;;;3.10;98.00;;;;;;5032522;28;20455;-69
2023/02/06 05:46:53;;;;;;;10.10;5.33;;;3.10;98.00;;;;;;5032624;28;20487;-69
2023/02/06 05:49:21;;;;;;;10.00;4.17;;;3.00;98.00;;;;;;5032839;28;20467;-70
2023/02/06 05:51:50;;;;;;;9.67;4.23;;;2.90;98.00;;;;;;5032337;28;20550;-70
2023/02/06 05:54:18;;;;;;;13.17;5.50;;;2.90;98.00;;;;;;5032521;28;20556;-70
2023/02/06 05:56:45;;;;;;;7.00;3.60;;;3.20;98.00;;;;;;5032265;28;20855;-70
2023/02/06 05:59:15;;;;;;;7.20;3.70;;;3.20;98.00;;;;;;5032532;28;20464;-70
2023/02/06 06:01:42;;;;;;;7.50;3.77;;;3.20;98.00;;;;;;5032016;28;20456;-69
2023/02/06 06:04:09;;;;;;;6.30;3.80;;;3.40;98.00;;;;;;5032534;28;20479;-70
2023/02/06 06:06:36;;;;;;;8.27;4.43;;;3.40;98.00;;;;;;5032238;28;20844;-70
2023/02/06 06:09:05;;;;;;;7.27;4.50;;;3.50;98.00;;;;;;5032240;28;20462;-70
2023/02/06 06:11:33;;;;;;;10.60;4.87;;;3.30;98.00;;;;;;5032286;28;20526;-70
2023/02/06 06:14:00;;;;;;;9.37;4.90;;;3.20;98.00;;;;;;5032272;28;20955;-70
2023/02/06 06:16:28;;;;;;;7.13;3.87;;;3.10;98.00;;;;;;5032412;28;20471;-70
2023/02/06 06:18:55;;;;;;;10.20;4.87;;;3.00;98.00;;;;;;5032164;28;21097;-70
2023/02/06 06:21:22;;;;;;;5.40;3.03;;;3.10;98.00;;;;;;5032415;28;20542;-69
2023/02/06 06:23:49;;;;;;;6.60;3.87;;;3.10;98.00;;;;;;5032225;28;20810;-69
2023/02/06 06:26:20;;;;;;;13.00;4.13;;;3.10;98.00;;;;;;5031821;28;20452;-70
2023/02/06 06:28:48;;;;;;;6.60;4.30;;;3.10;98.00;;;;;;5032173;28;20470;-70
2023/02/06 06:31:15;;;;;;;4.83;3.00;;;3.00;98.00;;;;;;5032067;28;20460;-69
2023/02/06 06:33:43;;;;;;;8.77;4.73;;;2.90;98.00;;;;;;5031973;28;20800;-70
2023/02/06 06:36:11;;;;;;;6.80;3.80;;;2.90;98.00;;;;;;5030501;28;20839;-69
2023/02/06 06:38:40;;;;;;;10.60;5.50;;;2.90;98.00;;;;;;5031617;28;20452;-69
2023/02/06 06:41:09;;;;;;;5.87;4.00;;;2.90;98.00;;;;;;5032002;28;20477;-71
2023/02/06 06:43:38;;;;;;;11.40;4.00;;;2.90;98.00;;;;;;5030823;28;20921;-70
2023/02/06 06:46:05;;;;;;;8.33;3.90;;;2.90;98.00;;;;;;5031860;28;20459;-70
2023/02/06 06:48:35;;;;;;;7.83;5.13;;;3.00;98.00;;;;;;5035510;28;20487;-70
2023/02/06 06:51:03;;;;;;;9.23;3.87;;;3.00;98.00;;;;;;5035964;28;20460;-70
2023/02/06 06:53:30;;;;;;;9.57;4.50;;;3.10;98.00;;;;;;5035774;28;20929;-70
2023/02/06 06:56:03;;;;;;;9.23;4.33;;;3.00;98.00;;;;;;5035786;28;20455;-70
2023/02/06 06:58:30;;;;;;;7.53;5.03;;;3.00;98.00;;;;;;5035696;28;20581;-70
2023/02/06 07:00:59;;;;;;;6.80;3.57;;;3.10;98.00;;;;;;5036089;28;20464;-70
2023/02/06 07:03:26;;;;;;;10.17;4.60;;;3.00;98.00;;;;;;5035704;28;20447;-64
2023/02/06 07:05:53;;;;;;;7.87;3.63;;;3.00;98.00;;;;;;5035534;28;20463;-64
2023/02/06 07:08:20;;;;;;;6.70;3.87;;;3.00;98.00;;;;;;5035551;28;20491;-63
2023/02/06 07:10:48;;;;;;;10.00;5.00;;;2.90;98.00;;;;;;5035370;28;20937;-64
2023/02/06 07:13:16;;;;;;;10.97;4.23;;;2.90;98.00;;;;;;5035570;28;20464;-63
2023/02/06 07:15:43;;;;;;;10.00;4.97;;;2.90;98.00;;;;;;5035482;28;20459;-64
2023/02/06 07:18:13;;;;;;;4.17;3.03;;;3.00;98.00;;;;;;5035541;28;20582;-64
2023/02/06 07:20:40;;;;;;;6.80;3.80;;;3.00;98.00;;;;;;5035602;28;20451;-65
2023/02/06 07:23:07;;;;;;;4.87;3.17;;;3.00;98.00;;;;;;5035155;28;20463;-63
2023/02/06 07:25:34;;;;;;;6.03;3.97;;;2.90;98.00;;;;;;5035228;28;20465;-63
2023/02/06 07:28:01;;;;;;;5.60;3.10;;;3.00;98.00;;;;;;5034816;28;21162;-63
2023/02/06 07:30:28;;;;;;;6.50;3.17;;;3.00;98.00;;;;;;5034935;28;20461;-64
2023/02/06 07:32:55;;;;;;;5.97;3.80;;;3.00;98.00;;;;;;5034873;28;20458;-63
2023/02/06 07:35:24;;;;;;;5.93;3.20;;;3.00;98.00;;;;;;5034970;28;20812;-63
2023/02/06 07:37:53;;;;;;;8.77;4.33;;;3.00;98.00;;;;;;5033585;28;20446;-63
2023/02/06 07:40:23;;;;;;;6.77;3.67;;;3.00;98.00;;;;;;5034816;28;20458;-63
2023/02/06 07:42:51;;;;;;;11.33;4.20;;;3.00;98.00;;;;;;5034701;28;20539;-63
2023/02/06 07:45:18;;;;;;;5.73;3.63;;;2.90;98.00;;;;;;5034714;28;20465;-63
2023/02/06 07:47:45;;;;;;;5.93;3.50;;;3.00;98.00;;;;;;5034487;28;20490;-63
2023/02/06 07:50:12;;;;;;;4.80;2.73;;;3.10;98.00;;;;;;5035083;28;20460;-64
2023/02/06 07:52:42;;;;;;;7.30;3.50;;;3.00;98.00;;;;;;5034757;28;20464;-63
2023/02/06 07:55:10;;;;;;;4.33;2.90;;;3.20;98.00;;;;;;5034730;28;20455;-64
2023/02/06 07:57:45;;;;;;;6.27;3.67;;;3.40;98.00;;;;;;5034014;28;20989;-64
2023/02/06 08:00:13;;;;;;;10.50;3.97;;;3.30;98.00;;;;;;5034568;28;20460;-63
2023/02/06 08:02:40;;;;;;;3.93;3.30;;;3.40;98.00;;;;;;5034659;28;20836;-65
2023/02/06 08:05:09;;;;;;;4.87;2.83;;;3.50;98.00;;;;;;5034800;28;20797;-63
2023/02/06 08:07:36;;;;;;;6.30;3.30;;;3.40;98.00;;;;;;5034333;28;20487;-63
2023/02/06 08:10:06;;;;;;;3.73;2.03;;;3.50;98.00;;;;;;5031462;28;20532;-63
2023/02/06 08:12:33;;;;;;;3.97;3.17;;;3.60;98.00;;;;;;5034411;28;20488;-63
2023/02/06 08:15:00;;;;;;;3.53;2.77;;;3.60;98.00;;;;;;5034468;28;20797;-62
2023/02/06 08:17:28;;;;;;;4.90;2.63;;;3.70;98.00;;;;;;5033285;28;20463;-63
2023/02/06 08:19:55;;;;;;;5.90;3.30;;;3.50;98.00;;;;;;5034329;28;20464;-63
2023/02/06 08:22:22;;;;;;;5.60;3.20;;;3.40;98.00;;;;;;5034048;28;20824;-63
2023/02/06 08:24:49;;;;;;;4.33;3.40;;;3.60;98.00;;;;;;5032970;28;20454;-63
2023/02/06 08:27:18;;;;;;;4.20;3.30;;;3.70;98.00;;;;;;5033751;28;20479;-64
2023/02/06 08:29:45;;;;;;;5.90;3.00;;;3.70;98.00;;;;;;5033912;28;20953;-63
2023/02/06 08:32:12;;;;;;;5.37;3.07;;;3.80;98.00;;;;;;5034031;28;20456;-63
2023/02/06 08:34:40;;;;;;;4.97;3.07;;;3.70;98.00;;;;;;5026714;28;20468;-63
2023/02/06 08:37:08;;;;;;;5.40;3.33;;;3.70;98.00;;;;;;5033636;28;20546;-63
2023/02/06 08:39:37;;;;;;;3.17;3.00;;;3.60;98.00;;;;;;5033625;28;20956;-64
2023/02/06 08:42:04;;;;;;;5.80;3.00;;;3.60;98.00;;;;;;5033677;28;20969;-63
2023/02/06 08:44:34;;;;;;;7.70;3.47;;;3.60;98.00;;;;;;5033593;28;20503;-63
2023/02/06 08:47:01;;;;;;;4.90;2.87;;;3.70;98.00;;;;;;5033312;28;20466;-64
2023/02/06 08:49:29;;;;;;;4.00;2.50;;;3.70;98.00;;;;;;5033743;28;20454;-64
2023/02/06 08:51:56;;;;;;;7.03;2.23;;;3.70;98.00;;;;;;5033348;28;20459;-64
2023/02/06 08:54:24;;;;;;;3.83;2.50;;;3.70;98.00;;;;;;5033707;28;20541;-64
2023/02/06 08:56:55;;;;;;;6.80;2.17;;;3.70;98.00;;;;;;5033418;28;20451;-61
2023/02/06 08:59:22;;;;;;;4.50;2.20;;;3.70;98.00;;;;;;5033562;28;20489;-64
2023/02/06 09:01:51;;;;;;;4.40;2.67;;;3.60;98.00;;;;;;5032187;28;20512;-63
2023/02/06 09:04:23;;;;;;;1.77;1.70;;;3.50;98.00;;;;;;5030248;28;20452;-63
2023/02/06 09:06:50;;;;;;;4.97;2.73;;;3.50;98.00;;;;;;5013406;28;20533;-64
2023/02/06 09:09:18;;;;;;;5.27;3.33;;;3.60;98.00;;;;;;5011240;28;20480;-63
2023/02/06 09:11:45;;;;;;;4.27;3.07;;;3.50;98.00;;;;;;5013614;28;20456;-64
2023/02/06 09:14:16;;;;;;;3.60;2.30;;;3.40;98.00;;;;;;5013453;28;20456;-64
2023/02/06 09:16:43;;;;;;;6.50;2.40;;;3.40;98.00;;;;;;5013573;28;20988;-64
2023/02/06 09:19:12;;;;;;;3.20;2.17;;;3.30;98.00;;;;;;5013280;28;20452;-64
2023/02/06 09:21:39;;;;;;;4.00;2.80;;;3.20;98.00;;;;;;5012958;28;20466;-64
2023/02/06 09:24:08;;;;;;;2.70;2.13;;;3.30;98.00;;;;;;5012828;28;20456;-58
2023/02/06 09:26:37;;;;;;;4.17;2.70;;;3.40;98.00;;;;;;5012885;28;20460;-66
2023/02/06 09:29:07;;;;;;;3.83;2.77;;;3.30;98.00;;;;;;5011131;28;20511;-65
2023/02/06 09:31:37;;;;;;;13.63;3.30;;;3.30;98.00;;;;;;5013166;28;20455;-65
2023/02/06 09:34:04;;;;;;;6.10;2.77;;;3.20;98.00;;;;;;5013056;28;20463;-66
2023/02/06 09:36:34;;;;;;;4.30;2.97;;;3.20;98.00;;;;;;5012872;28;21110;-62
2023/02/06 09:39:03;;;;;;;5.37;3.00;;;3.30;98.00;;;;;;5012454;28;20471;-64
2023/02/06 09:41:35;;;;;;;3.83;2.60;;;3.40;98.00;;;;;;5012839;28;20478;-63
2023/02/06 09:44:10;;;;;;;6.30;2.63;;;3.30;98.00;;;;;;5012685;28;20463;-64
2023/02/06 09:46:46;;;;;;;4.63;3.10;;;3.20;98.00;;;;;;5012621;28;20460;-64
2023/02/06 09:49:19;;;;;;;6.37;2.57;;;3.40;98.00;;;;;;5012685;28;20487;-67
2023/02/06 09:52:12;;;;;;;3.23;2.40;;;3.40;98.00;;;;;;5011494;28;20941;-63
2023/02/06 09:54:50;;;;;;;3.97;2.57;;;3.50;98.00;;;;;;5012647;28;20518;-64
2023/02/06 09:57:30;;;;;;;4.20;2.73;;;3.60;98.00;;;;;;5012694;28;20474;-63
2023/02/06 10:00:01;;;;;;;7.80;2.90;;;3.50;98.00;;;;;;5012508;28;20460;-63
2023/02/06 10:02:50;;;;;;;3.53;2.13;;;3.50;98.00;;;;;;5012449;28;20464;-64
2023/02/06 10:05:27;;;;;;;3.73;2.90;;;3.40;98.00;;;;;;5012155;28;20470;-63
2023/02/06 10:08:11;;;;;;;2.83;2.27;;;3.40;98.00;;;;;;5011053;28;21053;-63
2023/02/06 10:10:43;;;;;;;2.37;1.97;;;3.30;98.00;;;;;;5012467;28;20471;-62
2023/02/06 10:13:16;;;;;;;5.97;3.13;;;3.20;98.00;;;;;;5019297;28;20930;-63
2023/02/06 10:15:47;;;;;;;5.47;3.37;;;3.00;98.00;;;;;;5032195;28;20459;-63
2023/02/06 10:18:21;;;;;;;6.63;2.57;;;2.90;98.00;;;;;;5031251;28;20447;-64
2023/02/06 10:20:53;;;;;;;4.03;2.53;;;3.00;98.00;;;;;;5031121;28;20470;-67
2023/02/06 10:23:28;;;;;;;2.73;2.40;;;3.00;98.00;;;;;;5031610;28;20455;-64
2023/02/06 10:26:06;;;;;;;3.50;2.30;;;3.10;98.00;;;;;;5030066;28;20486;-67
2023/02/06 10:28:34;;;;;;;5.07;3.50;;;3.20;98.00;;;;;;5031209;28;20486;-64
2023/02/06 10:31:15;;;;;;;4.30;3.50;;;3.20;98.00;;;;;;5031759;28;21019;-65
2023/02/06 10:33:50;;;;;;;2.33;1.63;;;3.30;98.00;;;;;;5031574;28;20961;-65
2023/02/06 10:36:39;;;;;;;4.70;2.23;;;3.50;98.00;;;;;;5031645;28;20550;-62
2023/02/06 10:39:25;;;;;;;4.20;2.57;;;3.50;98.00;;;;;;5031761;28;20452;-64
2023/02/06 10:41:59;;;;;;;4.93;2.80;;;3.70;98.00;;;;;;5031767;28;20525;-64
2023/02/06 10:44:30;;;;;;;4.57;2.50;;;3.50;98.00;;;;;;5031625;28;20461;-64
2023/02/06 10:46:57;;;;;;;4.40;2.50;;;3.40;98.00;;;;;;5031526;28;20463;-63
2023/02/06 10:49:31;;;;;;;1.37;1.33;;;3.40;98.00;;;;;;5031701;28;20494;-64
2023/02/06 10:52:01;;;;;;;3.00;1.80;;;3.50;98.00;;;;;;5018671;28;20459;-65
2023/02/06 10:54:34;;;;;;;2.63;1.87;;;3.70;98.00;;;;;;5010979;28;20457;-63
2023/02/06 10:57:03;;;;;;;3.73;2.33;;;3.80;98.00;;;;;;5011988;28;20460;-64
2023/02/06 10:59:33;;;;;;;3.77;2.20;;;3.80;98.00;;;;;;5012246;28;20453;-65
2023/02/06 11:02:21;;;;;;;2.57;2.07;;;3.70;98.00;;;;;;5010773;28;20456;-65
2023/02/06 11:04:54;;;;;;;2.40;1.63;;;3.70;98.00;;;;;;5011737;28;20459;-65
2023/02/06 11:07:26;;;;;;;5.80;2.50;;;3.70;98.00;;;;;;5011504;28;20480;-66
2023/02/06 11:09:55;;;;;;;4.33;2.33;;;3.50;98.00;;;;;;5011699;28;20488;-66
2023/02/06 11:12:32;;;;;;;3.70;2.03;;;3.50;98.00;;;;;;5011996;28;20451;-65
2023/02/06 11:15:03;;;;;;;3.00;2.00;;;3.60;98.00;;;;;;5011975;28;20481;-66
2023/02/06 11:17:31;;;;;;;1.83;1.73;;;3.60;98.00;;;;;;5012037;28;20502;-65
2023/02/06 11:20:12;;;;;;;3.07;1.90;;;3.50;98.00;;;;;;5011894;28;20457;-66
2023/02/06 11:22:41;;;;;;;1.73;1.67;;;3.50;98.00;;;;;;5010320;28;20464;-65
2023/02/06 11:25:21;;;;;;;3.87;1.70;;;3.70;98.00;;;;;;5010314;28;20540;-66
2023/02/06 11:27:49;;;;;;;2.57;2.00;;;3.80;98.00;;;;;;5011464;28;20518;-65
2023/02/06 11:30:29;;;;;;;3.40;1.90;;;3.70;98.00;;;;;;5010950;28;20558;-65
2023/02/06 11:33:00;;;;;;;3.27;2.20;;;3.60;98.00;;;;;;5011649;28;20496;-65
2023/02/06 11:35:30;;;;;;;2.23;1.70;;;3.60;98.00;;;;;;5014612;28;20461;-66
2023/02/06 11:38:07;;;;;;;1.97;1.87;;;3.70;98.00;;;;;;5014307;28;20467;-65
2023/02/06 11:40:36;;;;;;;3.27;2.70;;;3.80;98.00;;;;;;5014343;28;20468;-65
2023/02/06 11:43:22;;;;;;;2.33;1.80;;;3.80;98.00;;;;;;5014325;28;20457;-65
2023/02/06 11:45:52;;;;;;;7.00;2.33;;;3.80;98.00;;;;;;5014219;28;20469;-65
2023/02/06 11:48:38;;;;;;;3.90;1.90;;;3.80;98.00;;;;;;5014069;28;20490;-67
2023/02/06 11:51:07;;;;;;;2.03;1.80;;;4.00;98.00;;;;;;5013738;28;20466;-66
2023/02/06 11:53:35;;;;;;;2.70;2.13;;;4.10;98.00;;;;;;5014085;28;20813;-65
2023/02/06 11:56:07;;;;;;;1.97;1.77;;;4.00;98.00;;;;;;5014086;28;20464;-65
2023/02/06 11:58:34;;;;;;;3.80;2.50;;;4.00;98.00;;;;;;5013925;28;20456;-66
2023/02/06 12:01:04;;;;;;;2.53;1.60;;;3.90;98.00;;;;;;5013966;28;20455;-65
2023/02/06 12:03:36;;;;;;;3.67;2.40;;;3.80;98.00;;;;;;5012690;28;20485;-66
2023/02/06 12:06:18;;;;;;;3.87;1.93;;;3.90;98.00;;;;;;5013839;28;20479;-66
2023/02/06 12:08:48;;;;;;;2.10;1.83;;;3.90;98.00;;;;;;5013777;28;20488;-66
2023/02/06 12:11:24;;;;;;;5.67;2.00;;;3.70;98.00;;;;;;5013794;28;20459;-66
2023/02/06 12:13:54;;;;;;;2.90;2.40;;;3.90;98.00;;;;;;5014001;28;20459;-66
2023/02/06 12:16:23;;;;;;;5.57;2.43;;;4.10;98.00;;;;;;5014180;28;20525;-65
2023/02/06 12:18:55;;;;;;;3.00;2.27;;;4.20;98.00;;;;;;5014368;28;20492;-65
2023/02/06 12:21:29;;;;;;;4.17;2.57;;;4.30;98.00;;;;;;5013264;28;20532;-66
2023/02/06 12:23:59;;;;;;;3.07;1.97;;;4.40;98.00;;;;;;5014323;28;20467;-66
2023/02/06 12:26:31;;;;;;;4.20;2.47;;;4.30;98.00;;;;;;5012987;28;20456;-65
2023/02/06 12:29:02;;;;;;;2.53;1.60;;;4.30;98.00;;;;;;5014042;28;20546;-65
2023/02/06 12:31:40;;;;;;;2.80;2.07;;;4.40;98.00;;;;;;5028635;28;20464;-65
2023/02/06 12:34:14;;;;;;;1.93;1.67;;;4.40;98.00;;;;;;5033680;28;20460;-66
2023/02/06 12:36:52;;;;;;;2.13;1.83;;;4.40;98.00;;;;;;5033764;28;20456;-65
2023/02/06 12:39:21;;;;;;;2.83;1.90;;;4.40;98.00;;;;;;5033764;28;20913;-68
2023/02/06 12:42:07;;;;;;;2.47;2.27;;;4.10;98.00;;;;;;5032197;28;20822;-66
2023/02/06 12:44:40;;;;;;;2.43;2.27;;;4.00;98.00;;;;;;5033544;28;20483;-67
2023/02/06 12:47:15;;;;;;;5.30;2.50;;;4.00;98.00;;;;;;5034013;28;20538;-67
2023/02/06 12:49:52;;;;;;;1.90;1.90;;;4.10;98.00;;;;;;5033293;28;20491;-67
2023/02/06 12:52:24;;;;;;;2.80;1.97;;;4.00;98.00;;;;;;5034493;28;20464;-67
2023/02/06 12:54:55;;;;;;;4.57;2.70;;;3.90;98.00;;;;;;5034575;28;20470;-67
2023/02/06 12:57:27;;;;;;;4.63;2.30;;;3.90;98.00;;;;;;5034431;28;20456;-67
2023/02/06 13:00:22;;;;;;;2.67;1.80;;;3.80;98.00;;;;;;5034318;28;20554;-66
2023/02/06 13:03:18;;;;;;;3.37;2.10;;;3.70;98.00;;;;;;5034480;28;20953;-68
2023/02/06 13:05:48;;;;;;;3.23;1.73;;;3.70;98.00;;;;;;5034087;28;20491;-68
2023/02/06 13:08:18;;;;;;;1.70;1.60;;;3.60;98.00;;;;;;5033019;28;20458;-67
2023/02/06 13:10:47;;;;;;;5.20;3.00;;;3.60;98.00;;;;;;5032574;28;20822;-66
2023/02/06 13:13:28;;;;;;;1.73;1.60;;;3.60;98.00;;;;;;5032410;28;20467;-66